Time;durP1;ratioP1;P1;durP2;ratioP2;P2;SDS_P1;SDS_P2;PMS_P1;PMS_P2;Temp;Humidity;BMP_temperature;BMP_pressure;BME280_temperature;BME280_humidity;BME280_pressure;Samples;Min_cycle;Max_cycle;Signal;HPM_P1;HPM_P2
2020/12/23 00:00:12;;;;;;;2.90;2.63;;;;;;;-5.84;76.57;101185.28;1785501;80;20998;-76
2020/12/23 00:02:41;;;;;;;2.43;2.20;;;;;;;-5.82;76.62;101184.78;1762807;81;21005;-76
2020/12/23 00:05:12;;;;;;;4.03;3.00;;;;;;;-5.77;76.66;101187.28;1785580;80;21392;-76
2020/12/23 00:07:41;;;;;;;4.00;2.93;;;;;;;-5.76;76.66;101181.98;1762806;81;21547;-76
2020/12/23 00:10:09;;;;;;;5.03;3.00;;;;;;;-5.72;76.68;101183.65;1785508;80;21018;-76
2020/12/23 00:12:37;;;;;;;6.33;3.27;;;;;;;-5.68;76.70;101180.91;1785513;80;20995;-77
2020/12/23 00:15:07;;;;;;;2.97;2.30;;;;;;;-5.69;76.63;101181.84;1762809;81;21017;-76
2020/12/23 00:17:35;;;;;;;2.40;1.97;;;;;;;-5.68;76.65;101184.44;1785526;80;22425;-76
2020/12/23 00:20:04;;;;;;;4.60;3.57;;;;;;;-5.68;76.65;101170.38;1788470;80;20946;-77
2020/12/23 00:22:32;;;;;;;7.63;3.40;;;;;;;-5.64;76.72;101169.41;1819379;78;21001;-77
2020/12/23 00:24:59;;;;;;;9.73;2.87;;;;;;;-5.65;76.63;101164.56;1795749;79;20973;-77
2020/12/23 00:27:27;;;;;;;3.97;2.73;;;;;;;-5.66;76.56;101162.00;1819452;78;20986;-77
2020/12/23 00:29:57;;;;;;;3.13;2.33;;;;;;;-5.66;76.54;101162.00;1766145;80;21772;-76
2020/12/23 00:32:29;;;;;;;6.57;3.20;;;;;;;-5.69;76.49;101160.75;1787104;80;20954;-77
2020/12/23 00:34:57;;;;;;;6.67;3.67;;;;;;;-5.69;76.54;101166.88;1787300;80;21152;-76
2020/12/23 00:37:25;;;;;;;5.50;3.37;;;;;;;-5.72;76.47;101154.67;1787162;80;21555;-76
2020/12/23 00:39:52;;;;;;;3.87;2.90;;;;;;;-5.72;76.47;101161.25;1787344;80;21029;-77
2020/12/23 00:42:22;;;;;;;3.90;3.43;;;;;;;-5.74;76.50;101155.59;1787207;80;21608;-77
2020/12/23 00:44:49;;;;;;;5.27;3.53;;;;;;;-5.74;76.54;101150.33;1787196;80;21005;-77
2020/12/23 00:47:17;;;;;;;9.30;4.53;;;;;;;-5.74;76.56;101152.53;1787143;80;21083;-76
2020/12/23 00:49:45;;;;;;;5.57;2.93;;;;;;;-5.72;76.60;101159.05;1791970;79;21467;-76
2020/12/23 00:52:12;;;;;;;4.77;3.20;;;;;;;-5.71;76.62;101160.79;1797990;79;20945;-76
2020/12/23 00:54:40;;;;;;;3.63;3.33;;;;;;;-5.70;76.62;101154.63;1798059;79;21698;-77
2020/12/23 00:57:09;;;;;;;3.97;2.40;;;;;;;-5.72;76.63;101150.71;1797881;79;21605;-76
2020/12/23 00:59:38;;;;;;;2.27;2.07;;;;;;;-5.67;76.71;101144.45;1798036;79;21036;-76
2020/12/23 01:02:05;;;;;;;3.77;3.17;;;;;;;-5.66;76.71;101151.00;1798059;79;20969;-77
2020/12/23 01:04:33;;;;;;;4.00;3.53;;;;;;;-5.65;76.69;101146.58;1798024;79;21139;-76
2020/12/23 01:07:01;;;;;;;6.23;3.30;;;;;;;-5.63;76.73;101140.81;1798039;79;22316;-77
2020/12/23 01:09:29;;;;;;;3.90;2.97;;;;;;;-5.60;76.75;101136.79;1797957;79;20962;-77
2020/12/23 01:11:56;;;;;;;5.20;2.87;;;;;;;-5.60;76.71;101135.47;1798303;79;21067;-77
2020/12/23 01:14:24;;;;;;;2.67;2.20;;;;;;;-5.60;76.69;101127.56;1798081;79;20938;-76
2020/12/23 01:16:52;;;;;;;6.10;3.57;;;;;;;-5.59;76.71;101131.48;1798056;79;21032;-77
2020/12/23 01:19:19;;;;;;;2.97;2.70;;;;;;;-5.59;76.66;101125.36;1797923;78;22263;-76
2020/12/23 01:21:47;;;;;;;3.10;2.00;;;;;;;-5.61;76.59;101129.34;1798072;79;21052;-76
2020/12/23 01:24:15;;;;;;;2.97;2.40;;;;;;;-5.62;76.61;101117.52;1798325;79;21020;-77
2020/12/23 01:26:42;;;;;;;6.27;3.43;;;;;;;-5.64;76.61;101116.24;1798123;79;21028;-76
2020/12/23 01:29:10;;;;;;;7.57;4.60;;;;;;;-5.64;76.66;101103.53;1778022;79;20992;-76
2020/12/23 01:31:41;;;;;;;4.87;3.00;;;;;;;-5.65;76.66;101093.88;1766580;81;22122;-76
2020/12/23 01:34:09;;;;;;;2.97;2.73;;;;;;;-5.64;76.70;101100.43;1766430;81;21060;-76
2020/12/23 01:36:37;;;;;;;12.80;3.97;;;;;;;-5.63;76.68;101101.28;1786005;79;20983;-76
2020/12/23 01:39:05;;;;;;;4.77;4.27;;;;;;;-5.65;76.61;101091.25;1790777;80;20987;-76
2020/12/23 01:41:33;;;;;;;5.13;3.83;;;;;;;-5.70;76.56;101092.71;1790804;80;21489;-76
2020/12/23 01:44:00;;;;;;;3.03;2.73;;;;;;;-5.74;76.61;101091.05;1790844;80;22237;-77
2020/12/23 01:46:32;;;;;;;3.93;3.03;;;;;;;-5.75;76.66;101092.82;1790562;79;20995;-76
2020/12/23 01:49:03;;;;;;;6.80;2.67;;;;;;;-5.75;76.73;101093.28;1771681;81;20962;-76
2020/12/23 01:51:40;;;;;;;4.07;3.10;;;;;;;-5.68;76.81;101092.64;1889985;75;22899;-76
2020/12/23 01:54:07;;;;;;;4.17;3.37;;;;;;;-5.69;76.83;101096.20;1860951;77;21007;-75
2020/12/23 01:56:36;;;;;;;3.33;2.63;;;;;;;-5.69;76.84;101093.10;1860795;77;21194;-76
2020/12/23 01:59:06;;;;;;;6.50;4.17;;;;;;;-5.67;76.87;101091.28;1860878;77;21010;-76
2020/12/23 02:01:37;;;;;;;3.13;2.67;;;;;;;-5.67;76.87;101084.70;1861202;77;20935;-76
2020/12/23 02:04:07;;;;;;;;;;;;;;;-5.69;76.85;101075.98;1858816;77;20931;-75
2020/12/23 02:06:34;;;;;;;4.60;3.57;;;;;;;-5.71;76.88;101075.16;1860776;77;20131;-75
2020/12/23 02:09:03;;;;;;;6.57;3.60;;;;;;;-5.70;76.91;101074.70;1827940;77;21459;-76
2020/12/23 02:11:31;;;;;;;5.00;3.60;;;;;;;-5.72;76.92;101066.40;1860761;77;21729;-76
2020/12/23 02:13:59;;;;;;;2.40;2.20;;;;;;;-5.70;76.94;101075.58;1860969;77;20966;-75
2020/12/23 02:16:26;;;;;;;6.60;4.00;;;;;;;-5.69;76.97;101073.34;1860844;77;21468;-75
2020/12/23 02:18:54;;;;;;;3.63;2.80;;;;;;;-5.69;76.92;101075.13;1850523;77;21004;-76
2020/12/23 02:21:24;;;;;;;4.17;2.77;;;;;;;-5.70;76.87;101071.63;1790679;80;21267;-77
2020/12/23 02:23:54;;;;;;;4.73;3.17;;;;;;;-5.71;76.86;101068.57;1790525;80;21144;-76
2020/12/23 02:26:23;;;;;;;3.87;3.47;;;;;;;-5.69;76.90;101068.53;1760472;80;20990;-74
2020/12/23 02:28:51;;;;;;;6.07;3.50;;;;;;;-5.70;76.90;101067.68;1801088;79;20970;-75
2020/12/23 02:31:19;;;;;;;4.50;3.40;;;;;;;-5.74;76.85;101064.27;1790749;79;20889;-77
2020/12/23 02:33:47;;;;;;;4.97;3.07;;;;;;;-5.76;76.86;101067.37;1807883;79;21197;-77
2020/12/23 02:36:14;;;;;;;4.67;3.83;;;;;;;-5.75;76.90;101068.25;1794524;80;20937;-77
2020/12/23 02:38:42;;;;;;;7.37;3.73;;;;;;;-5.76;76.97;101065.20;1815288;77;20983;-75
2020/12/23 02:41:10;;;;;;;4.80;3.30;;;;;;;-5.74;77.03;101071.28;1794745;80;20920;-77
2020/12/23 02:43:37;;;;;;;10.80;4.30;;;;;;;-5.72;77.08;101063.77;1809439;77;20951;-76
2020/12/23 02:46:05;;;;;;;6.50;4.23;;;;;;;-5.71;77.07;101067.25;1792515;80;21425;-76
2020/12/23 02:48:33;;;;;;;4.10;2.90;;;;;;;-5.73;77.05;101065.12;1746693;79;20986;-76
2020/12/23 02:51:01;;;;;;;5.30;4.20;;;;;;;-5.76;76.98;101065.20;1787300;79;20957;-76
2020/12/23 02:53:29;;;;;;;6.27;4.60;;;;;;;-5.77;76.99;101057.75;1775833;80;20939;-76
2020/12/23 02:55:56;;;;;;;4.53;3.03;;;;;;;-5.79;77.01;101055.62;1761716;81;20917;-77
2020/12/23 02:58:25;;;;;;;3.37;3.03;;;;;;;-5.82;77.04;101048.25;1805577;78;21286;-77
2020/12/23 03:00:52;;;;;;;4.77;3.20;;;;;;;-5.81;77.14;101053.91;1761466;81;21717;-76
2020/12/23 03:03:20;;;;;;;2.47;2.27;;;;;;;-5.81;77.18;101044.70;1808696;79;20955;-77
2020/12/23 03:05:48;;;;;;;5.63;3.97;;;;;;;-5.83;77.18;101053.95;1761022;81;21012;-76
2020/12/23 03:08:16;;;;;;;4.40;2.17;;;;;;;-5.84;77.21;101049.61;1808689;79;20923;-76
2020/12/23 03:10:43;;;;;;;6.13;3.80;;;;;;;-5.84;77.28;101048.72;1760984;81;21375;-77
2020/12/23 03:13:11;;;;;;;4.67;3.57;;;;;;;-5.85;77.34;101045.23;1808612;79;21560;-76
2020/12/23 03:15:39;;;;;;;8.67;3.60;;;;;;;-5.85;77.37;101042.59;1808624;79;20982;-77
2020/12/23 03:18:07;;;;;;;6.77;4.17;;;;;;;-5.86;77.43;101051.43;1808801;79;21480;-77
2020/12/23 03:20:35;;;;;;;4.80;3.43;;;;;;;-5.87;77.49;101056.73;1764486;81;21037;-76
2020/12/23 03:23:03;;;;;;;9.97;4.53;;;;;;;-5.88;77.52;101056.30;1795954;80;21529;-77
2020/12/23 03:25:31;;;;;;;5.73;3.27;;;;;;;-5.90;77.55;101057.66;1795868;80;21559;-76
2020/12/23 03:27:59;;;;;;;3.70;2.50;;;;;;;-5.91;77.56;101063.39;1800369;78;21000;-76
2020/12/23 03:30:26;;;;;;;2.83;2.53;;;;;;;-5.92;77.61;101064.28;1810754;79;20954;-75
2020/12/23 03:32:54;;;;;;;4.47;3.67;;;;;;;-5.90;77.68;101056.34;1796172;79;20992;-75
2020/12/23 03:35:23;;;;;;;7.80;3.83;;;;;;;-5.87;77.71;101057.59;1810974;79;22290;-75
2020/12/23 03:37:50;;;;;;;10.93;5.93;;;;;;;-5.85;77.75;101051.82;1796093;79;21032;-76
2020/12/23 03:40:18;;;;;;;20.13;11.53;;;;;;;-5.83;77.77;101059.69;1811022;79;21472;-76
2020/12/23 03:42:48;;;;;;;11.07;6.57;;;;;;;-5.82;77.78;101058.33;1762719;81;21542;-76
2020/12/23 03:45:16;;;;;;;14.43;7.40;;;;;;;-5.80;77.82;101056.98;1807668;79;21077;-76
2020/12/23 03:47:43;;;;;;;9.93;4.83;;;;;;;-5.79;77.85;101046.41;1762948;81;22075;-76
2020/12/23 03:50:11;;;;;;;10.33;4.93;;;;;;;-5.78;77.84;101057.33;1807535;79;21157;-76
2020/12/23 03:52:39;;;;;;;7.73;5.03;;;;;;;-5.80;77.83;101056.52;1762909;81;20938;-76
2020/12/23 03:55:09;;;;;;;5.37;3.40;;;;;;;-5.81;77.84;101050.82;1807839;79;21551;-76
2020/12/23 03:57:37;;;;;;;5.17;2.67;;;;;;;-5.82;77.90;101045.16;1762770;81;20961;-76
2020/12/23 04:00:06;;;;;;;8.10;4.47;;;;;;;-5.78;77.93;101045.47;1807895;79;22259;-76
2020/12/23 04:02:35;;;;;;;5.43;3.43;;;;;;;-5.76;77.99;101052.88;1803785;79;21160;-76
2020/12/23 04:05:04;;;;;;;4.93;3.73;;;;;;;-5.74;77.99;101056.36;1762803;81;21546;-76
2020/12/23 04:07:32;;;;;;;4.10;2.67;;;;;;;-5.75;77.92;101053.77;1807856;79;22371;-76
2020/12/23 04:10:01;;;;;;;7.67;3.87;;;;;;;-5.76;77.93;101055.98;1763011;81;21437;-75
2020/12/23 04:12:29;;;;;;;7.90;4.13;;;;;;;-5.76;77.99;101059.92;1807904;79;21366;-77
2020/12/23 04:14:57;;;;;;;4.03;3.03;;;;;;;-5.79;77.99;101055.62;1762925;81;20977;-77
2020/12/23 04:17:25;;;;;;;3.67;3.27;;;;;;;-5.80;78.00;101054.34;1807942;79;20926;-77
2020/12/23 04:19:53;;;;;;;6.93;3.27;;;;;;;-5.85;78.01;101059.72;1786626;80;21606;-76
2020/12/23 04:22:20;;;;;;;5.30;2.63;;;;;;;-5.84;78.08;101055.31;1819667;78;20994;-76
2020/12/23 04:24:48;;;;;;;4.03;3.67;;;;;;;-5.82;78.13;101054.37;1795844;80;22365;-77
2020/12/23 04:27:16;;;;;;;3.43;2.73;;;;;;;-5.80;78.19;101053.87;1819531;78;21033;-77
2020/12/23 04:29:44;;;;;;;4.93;3.10;;;;;;;-5.81;78.23;101044.70;1775954;78;20987;-77
2020/12/23 04:32:13;;;;;;;3.10;2.47;;;;;;;-5.79;78.31;101052.98;1769206;81;20959;-76
2020/12/23 04:34:41;;;;;;;5.73;3.17;;;;;;;-5.79;78.35;101054.73;1820514;78;21001;-77
2020/12/23 04:37:09;;;;;;;4.87;2.73;;;;;;;-5.77;78.41;101059.50;1791789;80;22017;-77
2020/12/23 04:39:36;;;;;;;5.30;3.50;;;;;;;-5.77;78.43;101061.70;1791771;80;20927;-77
2020/12/23 04:42:05;;;;;;;4.03;3.27;;;;;;;-5.77;78.46;101057.75;1820535;78;20985;-78
2020/12/23 04:44:33;;;;;;;4.40;3.30;;;;;;;-5.75;78.51;101060.34;1820371;78;20938;-76
2020/12/23 04:47:01;;;;;;;5.73;3.83;;;;;;;-5.73;78.54;101063.34;1820680;78;20986;-76
2020/12/23 04:49:33;;;;;;;5.27;3.93;;;;;;;-5.74;78.52;101063.38;1820591;78;21657;-77
2020/12/23 04:52:00;;;;;;;4.37;3.13;;;;;;;-5.74;78.51;101060.74;1817404;78;21136;-78
2020/12/23 04:54:28;;;;;;;6.60;4.20;;;;;;;-5.74;78.52;101055.05;1781905;79;20978;-78
2020/12/23 04:56:56;;;;;;;5.20;3.40;;;;;;;-5.73;78.56;101050.63;1788150;79;21033;-79
2020/12/23 04:59:23;;;;;;;6.20;3.40;;;;;;;-5.71;78.60;101048.81;1817599;79;20985;-77
2020/12/23 05:01:51;;;;;;;4.83;3.20;;;;;;;-5.70;78.61;101044.39;1817277;79;22664;-79
2020/12/23 05:04:19;;;;;;;7.70;3.53;;;;;;;-5.71;78.62;101031.69;1817245;78;21468;-78
2020/12/23 05:06:47;;;;;;;3.33;3.03;;;;;;;-5.73;78.56;101041.41;1817408;79;20993;-79
2020/12/23 05:09:15;;;;;;;5.20;3.20;;;;;;;-5.73;78.63;101034.36;1817278;79;20977;-78
2020/12/23 05:11:42;;;;;;;2.33;2.07;;;;;;;-5.75;78.66;101040.13;1808304;79;20954;-77
2020/12/23 05:14:10;;;;;;;5.77;2.77;;;;;;;-5.76;78.67;101039.70;1817479;78;21360;-79
2020/12/23 05:16:39;;;;;;;3.17;2.87;;;;;;;-5.77;78.68;101036.67;1817304;79;20970;-77
2020/12/23 05:19:06;;;;;;;4.13;2.80;;;;;;;-5.76;78.76;101045.44;1776697;80;20993;-79
2020/12/23 05:21:35;;;;;;;3.70;3.10;;;;;;;-5.76;78.79;101047.61;1790022;80;21009;-78
2020/12/23 05:24:02;;;;;;;5.00;4.10;;;;;;;-5.77;78.77;101047.64;1790244;80;21554;-78
2020/12/23 05:26:30;;;;;;;7.43;4.07;;;;;;;-5.77;78.81;101049.85;1733803;80;21510;-80
2020/12/23 05:28:58;;;;;;;6.47;4.63;;;;;;;-5.78;78.84;101053.84;1793181;80;21017;-77
2020/12/23 05:31:26;;;;;;;5.97;3.30;;;;;;;-5.77;78.86;101056.87;1764663;81;21033;-78
2020/12/23 05:33:53;;;;;;;4.50;3.33;;;;;;;-5.77;78.90;101048.53;1724132;80;20998;-77
2020/12/23 05:36:23;;;;;;;8.63;4.23;;;;;;;-5.79;78.92;101047.72;1747066;80;20946;-78
2020/12/23 05:38:50;;;;;;;3.23;2.80;;;;;;;-5.79;78.96;101052.09;1765180;81;21207;-77
2020/12/23 05:41:18;;;;;;;3.60;2.83;;;;;;;-5.79;79.00;101049.03;1780015;80;21030;-78
2020/12/23 05:43:46;;;;;;;3.97;3.17;;;;;;;-5.78;79.03;101051.20;1765119;81;20953;-78
2020/12/23 05:46:14;;;;;;;6.17;2.80;;;;;;;-5.77;79.08;101052.48;1780080;80;21065;-78
2020/12/23 05:48:42;;;;;;;5.40;2.87;;;;;;;-5.78;79.10;101053.38;1780355;80;21558;-76
2020/12/23 05:51:12;;;;;;;6.33;3.03;;;;;;;-5.77;79.18;101051.59;1764872;81;21692;-79
2020/12/23 05:53:40;;;;;;;2.73;2.50;;;;;;;-5.76;79.25;101052.02;1780087;80;21017;-77
2020/12/23 05:56:08;;;;;;;7.23;4.30;;;;;;;-5.76;79.29;101045.44;1779955;80;20935;-78
2020/12/23 05:58:38;;;;;;;2.37;2.07;;;;;;;-5.74;79.38;101047.14;1749949;80;21038;-77
2020/12/23 06:01:08;;;;;;;3.87;3.37;;;;;;;-5.74;79.42;101050.20;1765355;81;21555;-78
2020/12/23 06:03:58;;;;;;;8.97;4.50;;;;;;;-5.72;79.49;101051.02;1780211;80;21280;-75
2020/12/23 06:06:28;;;;;;;4.53;2.87;;;;;;;-5.70;79.53;101052.30;1765327;81;21004;-78
2020/12/23 06:08:59;;;;;;;4.33;2.73;;;;;;;-5.68;79.59;101048.73;1780428;80;21559;-79
2020/12/23 06:11:44;;;;;;;5.83;3.83;;;;;;;-5.67;79.60;101049.59;1804571;78;21022;-81
2020/12/23 06:14:19;;;;;;;8.07;4.67;;;;;;;-5.66;79.63;101052.19;1798328;79;21559;-77
2020/12/23 06:16:59;;;;;;;6.17;3.83;;;;;;;-5.62;79.74;101045.91;1800862;79;21815;-71
2020/12/23 06:19:37;;;;;;;3.47;3.17;;;;;;;-5.55;79.77;101050.09;1713768;83;21091;-70
2020/12/23 06:22:09;;;;;;;6.40;4.20;;;;;;;-5.51;79.82;101049.55;1767273;79;20967;-70
2020/12/23 06:24:38;;;;;;;2.30;2.20;;;;;;;-5.48;79.79;101050.79;1765505;79;28589;-75
2020/12/23 06:27:08;;;;;;;4.20;3.73;;;;;;;-5.45;79.78;101052.03;1793553;79;20990;-73
2020/12/23 06:29:42;;;;;;;4.80;4.03;;;;;;;-5.40;79.78;101050.13;1783735;79;21203;-71
2020/12/23 06:32:22;;;;;;;3.43;3.13;;;;;;;-5.38;79.69;101055.36;1786528;79;21030;-72
2020/12/23 06:35:02;;;;;;;10.90;4.47;;;;;;;-5.32;79.64;101051.67;1870094;76;21310;-72
2020/12/23 06:37:32;;;;;;;6.37;4.47;;;;;;;-5.38;79.52;101050.94;1839585;77;21001;-70
2020/12/23 06:40:09;;;;;;;7.53;5.00;;;;;;;-5.36;79.47;101046.48;1841232;77;22158;-70
2020/12/23 06:42:47;;;;;;;7.67;5.30;;;;;;;-5.35;79.36;101039.42;1858712;77;21012;-71
2020/12/23 06:45:16;;;;;;;8.17;4.93;;;;;;;-5.33;79.36;101048.15;1860852;77;21436;-72
2020/12/23 06:47:44;;;;;;;4.47;3.57;;;;;;;-5.32;79.28;101037.17;1860652;77;20981;-72
2020/12/23 06:50:23;;;;;;;4.83;3.37;;;;;;;-5.30;79.29;101041.94;1795107;78;21670;-72
2020/12/23 06:52:51;;;;;;;6.80;4.80;;;;;;;-5.23;79.31;101047.44;1840468;77;21352;-70
2020/12/23 06:55:19;;;;;;;3.37;3.07;;;;;;;-5.16;79.30;101051.62;1835551;77;21313;-70
2020/12/23 06:57:49;;;;;;;9.37;4.87;;;;;;;-5.13;79.18;101050.64;1819883;77;21724;-69
2020/12/23 07:00:29;;;;;;;7.03;5.47;;;;;;;-5.10;79.08;101051.88;1860949;77;21063;-70
2020/12/23 07:03:05;;;;;;;4.70;4.07;;;;;;;-5.13;78.94;101042.30;1856457;77;20946;-69
2020/12/23 07:05:39;;;;;;;3.80;3.50;;;;;;;-5.11;78.90;101054.13;1861017;77;21193;-71
2020/12/23 07:08:13;;;;;;;4.63;2.87;;;;;;;-5.11;78.82;101053.66;1859906;77;21021;-71
2020/12/23 07:10:47;;;;;;;4.10;3.70;;;;;;;-5.10;78.82;101051.41;1860903;77;20976;-73
2020/12/23 07:13:17;;;;;;;4.17;3.30;;;;;;;-5.08;78.79;101044.78;1860819;77;20932;-72
2020/12/23 07:15:56;;;;;;;13.13;4.83;;;;;;;-5.06;78.77;101046.95;1847104;77;21616;-79
2020/12/23 07:18:30;;;;;;;4.67;4.27;;;;;;;-5.05;78.68;101048.19;1827194;78;21185;-82
2020/12/23 07:21:03;;;;;;;5.33;3.83;;;;;;;-5.05;78.58;101046.87;1836312;77;20921;-82
2020/12/23 07:23:34;;;;;;;6.50;4.33;;;;;;;-5.06;78.47;101045.62;1773861;80;20985;-81
2020/12/23 07:26:04;;;;;;;8.67;4.23;;;;;;;-5.10;78.36;101047.46;1773612;81;20958;-83
2020/12/23 07:28:40;;;;;;;6.37;3.53;;;;;;;-5.11;78.33;101046.22;1767881;81;21617;-80
2020/12/23 07:31:10;;;;;;;7.97;3.63;;;;;;;-5.11;78.31;101047.07;1757915;81;21937;-80
2020/12/23 07:33:42;;;;;;;6.73;3.47;;;;;;;-5.08;78.32;101043.03;1759616;81;21059;-80
2020/12/23 07:36:11;;;;;;;4.12;3.45;;;;;;;-5.07;78.32;101045.20;1763652;81;26749;-82
2020/12/23 07:38:39;;;;;;;5.10;3.77;;;;;;;-5.03;78.35;101052.98;1763454;81;21095;-79
2020/12/23 07:41:12;;;;;;;4.10;3.73;;;;;;;-4.99;78.35;101050.66;1735823;82;21633;-83
2020/12/23 07:43:40;;;;;;;;;;;;;;;-4.93;78.33;101054.88;1739238;82;21275;-81
2020/12/23 07:46:09;;;;;;;6.57;4.20;;;;;;;-4.87;78.33;101051.17;1735040;82;20143;-73
2020/12/23 07:48:37;;;;;;;7.40;4.97;;;;;;;-4.85;78.28;101055.94;1734256;82;21017;-72
2020/12/23 07:51:07;;;;;;;4.20;3.20;;;;;;;-4.84;78.24;101049.30;1734078;82;21037;-75
2020/12/23 07:53:36;;;;;;;4.70;3.73;;;;;;;-4.83;78.15;101045.77;1709873;82;21045;-75
2020/12/23 07:56:07;;;;;;;5.03;3.00;;;;;;;-4.80;78.09;101044.79;1741870;80;21332;-72
2020/12/23 07:58:35;;;;;;;4.87;2.97;;;;;;;-4.78;78.00;101050.87;1764197;81;21718;-73
2020/12/23 08:01:08;;;;;;;4.30;2.97;;;;;;;-4.72;78.01;101048.52;1763498;81;21201;-75
2020/12/23 08:03:36;;;;;;;2.92;2.45;;;;;;;-4.68;78.04;101046.19;1762075;81;21110;-75
2020/12/23 08:06:08;;;;;;;3.70;3.33;;;;;;;-4.66;78.03;101046.99;1764946;81;21611;-74
2020/12/23 08:08:41;;;;;;;7.45;4.78;;;;;;;-4.62;78.02;101048.61;1765023;81;21390;-74
2020/12/23 08:11:12;;;;;;;8.10;4.67;;;;;;;-4.61;77.91;101048.56;1764920;81;21015;-74
2020/12/23 08:13:41;;;;;;;6.80;4.90;;;;;;;-4.69;77.71;101040.05;1764944;81;21019;-74
2020/12/23 08:16:15;;;;;;;7.27;3.33;;;;;;;-4.70;77.67;101037.45;1765071;81;21655;-75
2020/12/23 08:18:44;;;;;;;3.90;3.17;;;;;;;-4.69;77.68;101029.49;1764895;81;21130;-72
2020/12/23 08:21:21;;;;;;;7.37;4.03;;;;;;;-4.65;77.76;101035.53;1850504;76;21276;-73
2020/12/23 08:23:53;;;;;;;4.87;3.57;;;;;;;-4.61;77.76;101030.55;1866447;76;21542;-79
2020/12/23 08:26:21;;;;;;;8.63;4.47;;;;;;;-4.56;77.78;101021.17;1864211;76;21135;-78
2020/12/23 08:28:49;;;;;;;4.87;2.97;;;;;;;-4.54;77.69;101023.30;1848578;76;21014;-73
2020/12/23 08:31:21;;;;;;;4.63;3.17;;;;;;;-4.52;77.70;101018.83;1832807;78;20993;-74
2020/12/23 08:33:49;;;;;;;11.17;5.27;;;;;;;-4.48;77.66;101015.16;1772114;79;21658;-72
2020/12/23 08:36:20;;;;;;;6.30;3.47;;;;;;;-4.44;77.67;101015.49;1784952;80;21527;-72
2020/12/23 08:38:49;;;;;;;2.80;2.60;;;;;;;-4.40;77.60;101007.39;1785154;80;21542;-74
2020/12/23 08:43:53;;;;;;;11.60;4.92;;;;;;;-4.29;77.39;101003.06;1828533;76;28471;-73
2020/12/23 08:46:25;;;;;;;6.83;3.50;;;;;;;-4.28;77.34;100995.56;1809664;78;21048;-73
2020/12/23 08:48:55;;;;;;;6.20;3.47;;;;;;;-4.21;77.25;100999.71;1815270;79;21267;-75
2020/12/23 08:51:25;;;;;;;5.63;3.77;;;;;;;-4.15;77.18;100993.34;1814873;78;20981;-75
2020/12/23 08:53:54;;;;;;;4.50;3.17;;;;;;;-4.14;77.00;100993.77;1813757;79;20989;-74
2020/12/23 08:56:33;;;;;;;3.47;2.53;;;;;;;-4.20;76.84;100988.25;1779618;77;20952;-75
2020/12/23 08:59:06;;;;;;;2.87;2.60;;;;;;;-4.18;76.81;100988.16;1732955;82;20989;-75
2020/12/23 09:01:35;;;;;;;4.92;3.77;;;;;;;-4.15;76.82;100991.17;1717815;83;21206;-73
2020/12/23 09:04:08;;;;;;;7.10;4.13;;;;;;;-4.11;76.88;100985.70;1732838;81;21809;-72
2020/12/23 09:06:42;;;;;;;3.40;3.10;;;;;;;-4.06;76.83;100987.73;1717667;83;21126;-77
2020/12/23 09:09:20;;;;;;;3.73;3.17;;;;;;;-4.02;76.73;100984.52;1735865;79;21154;-72
2020/12/23 09:11:50;;;;;;;4.90;3.60;;;;;;;-4.01;76.65;100980.50;1740630;82;21161;-76
2020/12/23 09:14:39;;;;;;;6.03;3.53;;;;;;;-3.94;76.61;100980.30;1763195;81;22263;-71
2020/12/23 09:17:24;;;;;;;4.73;2.93;;;;;;;-3.89;76.57;100971.75;1744818;82;21084;-73
2020/12/23 09:20:01;;;;;;;2.47;2.13;;;;;;;-3.85;76.54;100962.78;1763367;81;20930;-73
2020/12/23 09:22:37;;;;;;;5.13;4.00;;;;;;;-3.82;76.49;100965.32;1745288;81;21036;-72
2020/12/23 09:25:29;;;;;;;5.47;3.23;;;;;;;-3.75;76.52;100963.28;1760075;81;21041;-73
2020/12/23 09:28:11;;;;;;;4.93;3.60;;;;;;;-3.68;76.47;100957.73;1747687;80;21672;-75
2020/12/23 09:30:47;;;;;;;6.77;3.50;;;;;;;-3.60;76.41;100956.11;1727652;83;21087;-72
2020/12/23 09:33:22;;;;;;;4.83;3.60;;;;;;;-3.53;76.21;100959.39;1715306;83;21047;-72
2020/12/23 09:35:52;;;;;;;2.87;2.47;;;;;;;-3.52;75.90;100957.16;1729429;81;21060;-73
2020/12/23 09:38:27;;;;;;;3.47;3.10;;;;;;;-3.52;75.77;100958.48;1719578;83;21596;-72
2020/12/23 09:40:56;;;;;;;4.13;3.13;;;;;;;-3.51;75.60;100954.91;1697791;83;22606;-72
2020/12/23 09:43:26;;;;;;;9.17;4.23;;;;;;;-3.55;75.43;100954.63;1764731;79;20981;-72
2020/12/23 09:45:56;;;;;;;6.70;3.53;;;;;;;-3.55;75.39;100952.84;1748816;82;20954;-71
2020/12/23 10:04:57;;;;;;;6.10;3.10;;;;;;;-3.47;74.83;100945.48;1775714;80;21084;-73
2020/12/23 10:07:27;;;;;;;4.67;3.27;;;;;;;-3.54;74.83;100947.96;1715251;80;21041;-72
2020/12/23 10:09:55;;;;;;;3.90;2.47;;;;;;;-3.49;74.98;100938.08;1720763;81;21143;-74
2020/12/23 10:12:24;;;;;;;5.20;3.27;;;;;;;-3.42;75.20;100930.73;1718406;80;21007;-74
2020/12/23 10:14:52;;;;;;;3.03;2.80;;;;;;;-3.38;75.33;100930.16;1720191;82;21026;-78
2020/12/23 10:17:21;;;;;;;6.50;3.20;;;;;;;-3.34;75.43;100931.78;1724395;82;21490;-80
2020/12/23 10:19:49;;;;;;;5.60;2.80;;;;;;;-3.29;75.55;100929.34;1724211;81;21185;-76
2020/12/23 10:22:17;;;;;;;7.37;3.53;;;;;;;-3.33;75.41;100929.52;1706167;81;21123;-74
2020/12/23 10:24:47;;;;;;;6.63;3.90;;;;;;;-3.33;75.52;100919.83;1723295;82;21666;-77
2020/12/23 10:27:19;;;;;;;2.77;2.02;;;;;;;-3.28;75.66;100916.50;1792846;77;21057;-80
2020/12/23 10:29:49;;;;;;;8.33;3.13;;;;;;;-3.20;75.91;100918.86;1773414;79;21139;-74
2020/12/23 10:32:20;;;;;;;6.07;3.17;;;;;;;-3.12;76.06;100918.08;1776511;78;21646;-79
2020/12/23 10:34:48;;;;;;;4.53;3.00;;;;;;;-3.04;76.19;100917.78;1794287;79;20992;-78
2020/12/23 10:37:15;;;;;;;1.90;1.80;;;;;;;-3.01;76.14;100915.45;1803120;79;21327;-77
2020/12/23 10:39:46;;;;;;;4.93;3.77;;;;;;;-2.96;76.01;100916.98;1800252;79;21032;-77
2020/12/23 10:42:14;;;;;;;7.23;3.97;;;;;;;-2.92;75.93;100918.60;1803126;78;21016;-74
2020/12/23 10:44:43;;;;;;;6.80;3.10;;;;;;;-2.96;75.82;100913.48;1798966;79;20949;-78
2020/12/23 10:47:13;;;;;;;4.60;2.90;;;;;;;-3.00;75.74;100906.14;1795492;79;20906;-77
2020/12/23 10:49:41;;;;;;;5.00;3.23;;;;;;;-3.01;75.77;100907.08;1806689;78;22592;-80
2020/12/23 10:52:09;;;;;;;3.40;2.63;;;;;;;-3.02;75.79;100897.41;1792773;78;20969;-78
2020/12/23 10:54:39;;;;;;;3.90;3.07;;;;;;;-3.11;75.69;100888.53;1754853;81;20966;-81
2020/12/23 10:57:08;;;;;;;3.17;2.27;;;;;;;-3.20;75.75;100899.02;1731319;81;21009;-81
2020/12/23 10:59:37;;;;;;;4.57;2.80;;;;;;;-3.23;75.92;100889.88;1754116;81;21337;-77
2020/12/23 11:02:05;;;;;;;8.80;4.30;;;;;;;-3.23;76.02;100887.23;1755703;81;21810;-76
2020/12/23 11:04:35;;;;;;;7.13;3.53;;;;;;;-3.19;76.26;100895.44;1754622;81;20925;-77
2020/12/23 11:07:02;;;;;;;3.53;2.93;;;;;;;-3.14;76.36;100896.59;1754140;81;21487;-76
2020/12/23 11:09:31;;;;;;;4.67;3.17;;;;;;;-3.13;76.49;100893.03;1769851;79;20945;-80
2020/12/23 11:11:59;;;;;;;2.30;2.00;;;;;;;-3.13;76.60;100895.20;1767502;81;20988;-75
2020/12/23 11:14:26;;;;;;;3.73;2.50;;;;;;;-3.12;76.67;100892.09;1766987;81;21636;-78
2020/12/23 11:16:54;;;;;;;3.20;2.10;;;;;;;-3.12;76.71;100887.65;1767277;81;21182;-81
2020/12/23 11:19:22;;;;;;;3.37;2.50;;;;;;;-3.13;76.68;100888.59;1767195;79;20976;-77
2020/12/23 11:21:50;;;;;;;5.07;2.87;;;;;;;-3.12;76.73;100887.65;1720411;83;21008;-78
2020/12/23 11:24:18;;;;;;;3.77;2.47;;;;;;;-3.13;76.79;100890.38;1698187;83;20957;-79
2020/12/23 11:26:48;;;;;;;1.83;1.73;;;;;;;-3.12;76.90;100885.47;1720498;83;21224;-77
2020/12/23 11:29:16;;;;;;;3.53;2.70;;;;;;;-3.13;76.95;100887.73;1746972;81;20994;-79
2020/12/23 11:31:44;;;;;;;2.13;2.03;;;;;;;-3.15;76.96;100896.17;1744499;82;20971;-78
2020/12/23 11:34:11;;;;;;;4.93;3.57;;;;;;;-3.17;77.08;100890.97;1726489;82;21029;-79
2020/12/23 11:36:42;;;;;;;5.17;2.40;;;;;;;-3.17;77.19;100887.00;1775482;79;20910;-77
2020/12/23 11:39:10;;;;;;;5.57;2.70;;;;;;;-3.18;77.28;100880.45;1720680;83;21207;-82
2020/12/23 11:41:41;;;;;;;2.57;2.37;;;;;;;-3.18;77.30;100889.70;1770570;79;21044;-78
2020/12/23 11:44:09;;;;;;;2.20;1.70;;;;;;;-3.21;77.34;100879.24;1799696;78;20960;-78
2020/12/23 11:46:37;;;;;;;5.07;2.87;;;;;;;-3.21;77.41;100881.41;1796940;79;21635;-76
2020/12/23 11:49:05;;;;;;;5.97;3.93;;;;;;;-3.20;77.53;100885.80;1787086;79;21111;-72
2020/12/23 11:51:35;;;;;;;3.17;2.47;;;;;;;-3.26;77.53;100878.98;1791764;78;21859;-71
2020/12/23 11:54:03;;;;;;;3.40;1.93;;;;;;;-3.30;77.52;100879.16;1791402;80;21055;-73